Time;durP1;ratioP1;P1;durP2;ratioP2;P2;SDS_P1;SDS_P2;PMS_P1;PMS_P2;Temp;Humidity;BMP_temperature;BMP_pressure;BME280_temperature;BME280_humidity;BME280_pressure;Samples;Min_cycle;Max_cycle;Signal;HPM_P1;HPM_P2
2023/06/02 00:02:07;;;;;;;9.88;1.38;;;;;18.60;102064.00;;;;5091133;28;20275;-74
2023/06/02 00:04:37;;;;;;;3.30;1.15;;;;;18.60;102067.00;;;;5084661;28;20282;-75
2023/06/02 00:07:05;;;;;;;6.07;1.20;;;;;18.50;102068.00;;;;5091214;28;20195;-74
2023/06/02 00:09:37;;;;;;;5.47;1.27;;;;;18.50;102060.00;;;;5089032;28;20203;-75
2023/06/02 00:12:04;;;;;;;3.03;1.27;;;;;18.50;102060.00;;;;5084339;28;20572;-74
2023/06/02 00:14:32;;;;;;;6.38;1.35;;;;;18.50;102057.00;;;;5078674;28;20203;-74
2023/06/02 00:17:01;;;;;;;3.15;0.95;;;;;18.50;102061.00;;;;5078900;28;20209;-74
2023/06/02 00:19:30;;;;;;;3.30;1.30;;;;;18.50;102057.00;;;;5084090;28;20222;-74
2023/06/02 00:21:58;;;;;;;7.50;1.38;;;;;18.60;102048.00;;;;5089038;28;20200;-74
2023/06/02 00:24:25;;;;;;;5.63;1.15;;;;;18.50;102056.00;;;;5091368;28;20594;-74
2023/06/02 00:26:52;;;;;;;3.65;1.27;;;;;18.60;102056.00;;;;5091825;28;20186;-74
2023/06/02 00:29:20;;;;;;;6.60;1.25;;;;;18.50;102052.00;;;;5091264;28;20198;-74
2023/06/02 00:31:47;;;;;;;4.30;1.17;;;;;18.50;102051.00;;;;5090262;28;20202;-74
2023/06/02 00:34:16;;;;;;;7.60;1.67;;;;;18.50;102047.00;;;;5090565;28;20714;-74
2023/06/02 00:36:43;;;;;;;2.40;1.33;;;;;18.50;102044.00;;;;5090634;28;20205;-74
2023/06/02 00:39:10;;;;;;;6.47;1.52;;;;;18.40;102048.00;;;;5089421;28;20225;-75
2023/06/02 00:41:39;;;;;;;2.38;1.20;;;;;18.40;102051.00;;;;5089453;28;20202;-74
2023/06/02 00:44:06;;;;;;;2.42;0.90;;;;;18.40;102050.00;;;;5091194;28;20206;-74
2023/06/02 00:46:33;;;;;;;4.22;1.48;;;;;18.40;102047.00;;;;5089445;28;20202;-74
2023/06/02 00:49:00;;;;;;;4.03;1.20;;;;;18.40;102049.00;;;;5089595;28;20213;-74
2023/06/02 00:51:29;;;;;;;4.93;1.95;;;;;18.30;102049.00;;;;5088449;28;20207;-74
2023/06/02 00:53:57;;;;;;;3.45;1.20;;;;;18.30;102049.00;;;;5087427;28;20194;-74
2023/06/02 00:56:24;;;;;;;6.43;1.33;;;;;18.40;102048.00;;;;5090262;28;20202;-75
2023/06/02 00:58:53;;;;;;;4.45;1.45;;;;;18.30;102055.00;;;;5088296;28;20202;-75
2023/06/02 01:01:21;;;;;;;2.90;0.98;;;;;18.40;102048.00;;;;5078577;28;20229;-75
2023/06/02 01:03:51;;;;;;;4.95;1.35;;;;;18.30;102046.00;;;;5085177;28;20202;-75
2023/06/02 01:06:23;;;;;;;4.80;1.35;;;;;18.30;102045.00;;;;5089617;28;20198;-75
2023/06/02 01:08:52;;;;;;;8.23;1.58;;;;;18.30;102050.00;;;;5090406;28;20558;-74
2023/06/02 01:11:21;;;;;;;4.30;1.40;;;;;18.30;102052.00;;;;5088655;28;20226;-74
2023/06/02 01:13:49;;;;;;;9.68;1.80;;;;;18.30;102047.00;;;;5090044;28;20201;-74
2023/06/02 01:16:17;;;;;;;3.15;1.10;;;;;18.30;102053.00;;;;5089875;28;20206;-74
2023/06/02 01:18:46;;;;;;;4.75;1.40;;;;;18.30;102056.00;;;;5080650;28;20575;-74
2023/06/02 01:21:21;;;;;;;3.17;0.90;;;;;18.30;102052.00;;;;5087630;28;20194;-74
2023/06/02 01:23:51;;;;;;;8.85;1.45;;;;;18.20;102050.00;;;;5086682;28;20666;-74
2023/06/02 01:26:18;;;;;;;4.90;1.55;;;;;18.30;102049.00;;;;5077646;28;20195;-75
2023/06/02 01:28:46;;;;;;;6.80;1.50;;;;;18.20;102053.00;;;;5087780;28;20205;-74
2023/06/02 01:31:18;;;;;;;7.32;1.40;;;;;18.20;102049.00;;;;5087657;28;20194;-74
2023/06/02 01:33:54;;;;;;;6.00;1.42;;;;;18.20;102056.00;;;;5086973;28;20225;-74
2023/06/02 01:36:24;;;;;;;5.32;1.38;;;;;18.20;102055.00;;;;5088802;28;20651;-75
2023/06/02 01:38:54;;;;;;;4.43;1.58;;;;;18.10;102053.00;;;;5089399;28;20225;-74
2023/06/02 01:41:22;;;;;;;5.47;1.17;;;;;18.10;102049.00;;;;5088755;28;20236;-75
2023/06/02 01:43:50;;;;;;;3.28;1.35;;;;;18.10;102067.00;;;;5081532;28;20201;-74
2023/06/02 01:46:18;;;;;;;5.45;1.55;;;;;18.10;102058.00;;;;5079996;28;20730;-74
2023/06/02 01:48:45;;;;;;;4.90;1.70;;;;;18.10;102059.00;;;;5087707;28;20205;-74
2023/06/02 01:51:12;;;;;;;6.80;1.40;;;;;18.10;102061.00;;;;5086082;28;20195;-74
2023/06/02 01:53:40;;;;;;;2.25;1.15;;;;;18.10;102052.00;;;;5085135;28;20210;-74
2023/06/02 01:56:08;;;;;;;2.88;1.45;;;;;18.00;102047.00;;;;5085452;28;20210;-74
2023/06/02 01:58:36;;;;;;;2.95;1.20;;;;;18.00;102055.00;;;;5074170;28;20198;-74
2023/06/02 02:01:03;;;;;;;7.97;1.33;;;;;18.00;102053.00;;;;5088458;28;20258;-74
2023/06/02 02:03:32;;;;;;;5.55;1.63;;;;;18.00;102056.00;;;;5086636;28;20202;-74
2023/06/02 02:06:00;;;;;;;3.42;0.90;;;;;17.90;102050.00;;;;5085489;28;20222;-75
2023/06/02 02:08:27;;;;;;;1.90;1.00;;;;;17.90;102050.00;;;;5070566;28;20203;-74
2023/06/02 02:10:54;;;;;;;4.90;1.70;;;;;17.90;102057.00;;;;5087615;28;20851;-75
2023/06/02 02:13:23;;;;;;;3.10;1.52;;;;;17.90;102052.00;;;;5087876;28;20268;-75
2023/06/02 02:15:50;;;;;;;3.10;1.23;;;;;17.90;102064.00;;;;5089025;28;20586;-74
2023/06/02 02:18:20;;;;;;;3.50;1.15;;;;;17.90;102046.00;;;;5082555;28;20202;-74
2023/06/02 02:20:47;;;;;;;4.63;1.55;;;;;17.90;102051.00;;;;5074502;28;20229;-74
2023/06/02 02:23:14;;;;;;;6.07;1.60;;;;;17.90;102051.00;;;;5087840;28;20206;-75
2023/06/02 02:25:42;;;;;;;3.83;1.70;;;;;17.90;102053.00;;;;5086122;28;20289;-75
2023/06/02 02:28:10;;;;;;;4.43;1.33;;;;;17.90;102046.00;;;;5083214;28;20198;-75
2023/06/02 02:30:38;;;;;;;3.20;1.00;;;;;17.90;102048.00;;;;5085062;28;20199;-75
2023/06/02 02:33:05;;;;;;;4.78;1.30;;;;;17.90;102049.00;;;;5083718;28;20217;-75
2023/06/02 02:35:33;;;;;;;5.43;1.55;;;;;17.90;102052.00;;;;5086749;28;20206;-75
2023/06/02 02:38:00;;;;;;;2.38;1.38;;;;;17.90;102059.00;;;;5088820;28;20214;-75
2023/06/02 02:40:27;;;;;;;4.68;1.02;;;;;17.90;102056.00;;;;5087914;28;20217;-75
2023/06/02 02:42:55;;;;;;;5.00;1.23;;;;;17.90;102057.00;;;;5088760;28;20209;-75
2023/06/02 02:45:23;;;;;;;3.25;1.17;;;;;17.90;102057.00;;;;5084909;28;20247;-75
2023/06/02 02:47:52;;;;;;;3.10;1.30;;;;;17.90;102051.00;;;;5088101;28;20202;-75
2023/06/02 02:50:19;;;;;;;3.40;1.45;;;;;17.90;102045.00;;;;5087229;28;20194;-75
2023/06/02 02:52:46;;;;;;;4.72;1.40;;;;;17.90;102050.00;;;;5087877;28;20201;-75
2023/06/02 02:55:14;;;;;;;3.15;1.30;;;;;17.90;102043.00;;;;5084916;28;20210;-75
2023/06/02 02:57:42;;;;;;;2.47;1.10;;;;;17.90;102046.00;;;;5087389;28;20605;-75
2023/06/02 03:00:10;;;;;;;4.28;1.40;;;;;17.90;102048.00;;;;5086697;28;20222;-75
2023/06/02 03:02:37;;;;;;;5.57;1.30;;;;;17.90;102052.00;;;;5088241;28;20199;-75
2023/06/02 03:05:08;;;;;;;3.63;1.02;;;;;17.90;102056.00;;;;5088098;28;20186;-75
2023/06/02 03:07:35;;;;;;;6.35;1.70;;;;;17.90;102062.00;;;;5088334;28;20198;-75
2023/06/02 03:10:03;;;;;;;4.93;1.80;;;;;17.90;102056.00;;;;5087066;28;20201;-75
2023/06/02 03:12:30;;;;;;;2.50;1.02;;;;;17.90;102051.00;;;;5086807;28;20190;-75
2023/06/02 03:14:58;;;;;;;4.35;1.55;;;;;17.90;102053.00;;;;5088413;28;20205;-75
2023/06/02 03:17:27;;;;;;;3.17;1.17;;;;;17.90;102051.00;;;;5085662;28;20190;-76
2023/06/02 03:19:55;;;;;;;4.05;1.15;;;;;17.90;102047.00;;;;5077585;28;20240;-75
2023/06/02 03:22:24;;;;;;;6.63;1.30;;;;;17.90;102043.00;;;;5087901;28;20205;-75
2023/06/02 03:24:52;;;;;;;5.05;1.50;;;;;17.90;102049.00;;;;5087651;28;20206;-75
2023/06/02 03:27:19;;;;;;;3.42;1.58;;;;;17.90;102055.00;;;;5083683;28;20205;-74
2023/06/02 03:29:47;;;;;;;5.18;1.20;;;;;17.90;102061.00;;;;5087658;28;20206;-75
2023/06/02 03:32:14;;;;;;;3.13;1.23;;;;;17.90;102057.00;;;;5087709;28;20202;-75
2023/06/02 03:34:44;;;;;;;4.03;1.42;;;;;17.90;102062.00;;;;5087274;28;20576;-75
2023/06/02 03:37:15;;;;;;;2.42;1.10;;;;;17.80;102061.00;;;;5084626;28;20194;-75
2023/06/02 03:39:44;;;;;;;4.03;1.42;;;;;17.80;102053.00;;;;5083790;28;20198;-75
2023/06/02 03:42:11;;;;;;;4.28;1.10;;;;;17.80;102054.00;;;;5083809;28;20206;-75
2023/06/02 03:44:40;;;;;;;5.70;1.30;;;;;17.80;102057.00;;;;5088220;28;20288;-75
2023/06/02 03:47:08;;;;;;;4.00;1.17;;;;;17.80;102055.00;;;;5086494;28;20206;-75
2023/06/02 03:49:36;;;;;;;5.00;1.38;;;;;17.80;102054.00;;;;5080037;28;20199;-75
2023/06/02 03:52:04;;;;;;;3.78;0.80;;;;;17.80;102057.00;;;;5088018;28;20224;-75
2023/06/02 03:54:31;;;;;;;3.13;1.05;;;;;17.80;102066.00;;;;5079786;28;20222;-75
2023/06/02 03:56:59;;;;;;;4.30;1.08;;;;;17.80;102052.00;;;;5087130;28;20201;-75
2023/06/02 03:59:27;;;;;;;3.85;1.05;;;;;17.80;102057.00;;;;5090633;28;20198;-74
2023/06/02 04:01:54;;;;;;;5.20;1.33;;;;;17.80;102065.00;;;;5088572;28;20229;-75
2023/06/02 04:04:21;;;;;;;3.15;1.10;;;;;17.80;102053.00;;;;5086795;28;20206;-75
2023/06/02 04:06:49;;;;;;;5.20;1.15;;;;;17.80;102055.00;;;;5091147;28;20205;-75
2023/06/02 04:09:16;;;;;;;2.92;1.05;;;;;17.80;102061.00;;;;5087705;28;20205;-75
2023/06/02 04:11:43;;;;;;;6.40;1.40;;;;;17.80;102054.00;;;;5087982;28;20195;-75
2023/06/02 04:14:13;;;;;;;6.10;1.48;;;;;17.80;102054.00;;;;5079895;28;20210;-75
2023/06/02 04:16:41;;;;;;;3.03;1.23;;;;;17.80;102064.00;;;;5082561;28;20591;-75
2023/06/02 04:19:08;;;;;;;4.18;1.40;;;;;17.80;102058.00;;;;5089660;28;20247;-74
2023/06/02 04:21:35;;;;;;;3.20;1.10;;;;;17.80;102067.00;;;;5075423;28;20233;-75
2023/06/02 04:24:03;;;;;;;4.93;1.23;;;;;17.80;102072.00;;;;5074746;28;20233;-75
2023/06/02 04:26:30;;;;;;;4.15;1.13;;;;;17.80;102070.00;;;;5089859;28;20203;-75
2023/06/02 04:28:58;;;;;;;4.20;0.98;;;;;17.80;102068.00;;;;5091655;28;20194;-75
2023/06/02 04:31:42;;;;;;;3.15;1.10;;;;;17.70;102072.00;;;;5089307;28;20209;-75
2023/06/02 04:34:10;;;;;;;5.97;1.30;;;;;17.80;102066.00;;;;5090369;28;20221;-75
2023/06/02 04:36:37;;;;;;;4.95;0.82;;;;;17.80;102071.00;;;;5090901;28;20202;-74
2023/06/02 04:39:07;;;;;;;2.63;1.20;;;;;17.80;102069.00;;;;5090712;28;20197;-75
2023/06/02 04:41:36;;;;;;;5.90;1.27;;;;;17.80;102074.00;;;;5089715;28;20258;-75
2023/06/02 04:44:04;;;;;;;5.43;1.60;;;;;17.80;102074.00;;;;5090426;28;20194;-74
2023/06/02 04:46:31;;;;;;;2.15;0.93;;;;;17.80;102076.00;;;;5090471;28;20737;-75
2023/06/02 04:49:00;;;;;;;3.97;1.15;;;;;17.80;102072.00;;;;5088630;28;20194;-75
2023/06/02 04:51:28;;;;;;;4.20;1.13;;;;;17.80;102069.00;;;;5088207;28;20202;-75
2023/06/02 04:53:55;;;;;;;9.52;2.03;;;;;17.90;102067.00;;;;5087168;28;20199;-75
2023/06/02 04:56:24;;;;;;;3.55;1.27;;;;;17.90;102073.00;;;;5087844;28;20229;-74
2023/06/02 04:58:51;;;;;;;6.47;1.15;;;;;17.90;102065.00;;;;5088879;28;20190;-75
2023/06/02 05:01:18;;;;;;;3.42;0.70;;;;;17.90;102067.00;;;;5088486;28;20222;-74
2023/06/02 05:03:46;;;;;;;4.78;1.30;;;;;17.90;102069.00;;;;5089549;28;20546;-75
2023/06/02 05:06:14;;;;;;;5.25;1.20;;;;;17.90;102076.00;;;;5083220;28;20204;-75
2023/06/02 05:08:41;;;;;;;4.30;1.52;;;;;17.90;102078.00;;;;5084825;28;20727;-74
2023/06/02 05:11:09;;;;;;;5.15;1.23;;;;;17.90;102080.00;;;;5086403;28;20206;-75
2023/06/02 05:13:37;;;;;;;4.95;1.13;;;;;17.90;102079.00;;;;5088275;28;20206;-75
2023/06/02 05:16:05;;;;;;;4.85;1.05;;;;;17.90;102075.00;;;;5089394;28;20202;-75
2023/06/02 05:18:32;;;;;;;1.90;0.75;;;;;17.90;102075.00;;;;5087678;28;20194;-75
2023/06/02 05:20:59;;;;;;;6.07;1.27;;;;;17.90;102079.00;;;;5087303;28;20573;-75
2023/06/02 05:23:28;;;;;;;4.00;1.10;;;;;17.90;102080.00;;;;5086736;28;20217;-75
2023/06/02 05:25:55;;;;;;;6.70;1.77;;;;;17.90;102079.00;;;;5087763;28;20240;-75
2023/06/02 05:28:23;;;;;;;3.38;1.23;;;;;17.90;102085.00;;;;5086309;28;20652;-75
2023/06/02 05:30:50;;;;;;;3.70;1.10;;;;;17.90;102087.00;;;;5086335;28;20202;-74
2023/06/02 05:33:17;;;;;;;7.82;0.93;;;;;18.00;102086.00;;;;5089075;28;20234;-75
2023/06/02 05:35:45;;;;;;;9.18;1.65;;;;;18.00;102080.00;;;;5087246;28;20204;-75
2023/06/02 05:38:15;;;;;;;7.95;1.33;;;;;18.00;102083.00;;;;5088141;28;20198;-76
2023/06/02 05:40:44;;;;;;;2.38;1.05;;;;;18.00;102076.00;;;;5086169;28;20886;-75
2023/06/02 05:43:11;;;;;;;6.38;1.38;;;;;18.00;102076.00;;;;5086869;28;20205;-75
2023/06/02 05:45:38;;;;;;;4.70;0.90;;;;;18.10;102077.00;;;;5086767;28;20208;-75
2023/06/02 05:48:06;;;;;;;7.47;1.30;;;;;18.10;102088.00;;;;5086017;28;20201;-75
2023/06/02 05:50:33;;;;;;;3.65;0.98;;;;;18.10;102078.00;;;;5084888;28;20199;-75
2023/06/02 05:53:00;;;;;;;3.40;0.90;;;;;18.10;102085.00;;;;5087075;28;20231;-75
2023/06/02 05:55:28;;;;;;;3.90;0.85;;;;;18.20;102086.00;;;;5086255;28;20222;-76
2023/06/02 05:57:57;;;;;;;3.42;1.10;;;;;18.20;102086.00;;;;5086380;28;20202;-76
2023/06/02 06:00:24;;;;;;;4.85;1.05;;;;;18.20;102086.00;;;;5085566;28;20550;-75
2023/06/02 06:02:52;;;;;;;4.55;1.15;;;;;18.30;102093.00;;;;5082709;28;20202;-76
2023/06/02 06:05:19;;;;;;;3.58;0.77;;;;;18.30;102088.00;;;;5088538;28;20556;-76
2023/06/02 06:07:46;;;;;;;4.50;1.40;;;;;18.30;102086.00;;;;5080763;28;20194;-76
2023/06/02 06:10:14;;;;;;;6.20;1.48;;;;;18.30;102089.00;;;;5084642;28;20206;-76
2023/06/02 06:12:41;;;;;;;3.67;1.05;;;;;18.30;102083.00;;;;5086088;28;20198;-77
2023/06/02 06:15:10;;;;;;;2.40;0.95;;;;;18.30;102081.00;;;;5083086;28;20205;-76
2023/06/02 06:17:49;;;;;;;7.47;1.00;;;;;18.20;102078.00;;;;5089365;28;20194;-77
2023/06/02 06:20:16;;;;;;;6.15;1.20;;;;;18.40;102079.00;;;;5086385;28;20190;-76
2023/06/02 06:22:44;;;;;;;4.88;0.98;;;;;18.40;102075.00;;;;5082607;28;20229;-76
2023/06/02 06:25:11;;;;;;;4.50;1.35;;;;;18.40;102082.00;;;;5086944;28;20536;-77
2023/06/02 06:27:40;;;;;;;4.50;1.05;;;;;18.40;102090.00;;;;5088209;28;20205;-77
2023/06/02 06:30:09;;;;;;;5.30;1.10;;;;;18.40;102086.00;;;;5086769;28;20205;-76
2023/06/02 06:32:37;;;;;;;5.80;1.40;;;;;18.50;102090.00;;;;5074288;28;20230;-76
2023/06/02 06:35:05;;;;;;;4.38;1.45;;;;;18.50;102080.00;;;;5082936;28;20687;-77
2023/06/02 06:37:32;;;;;;;6.13;1.05;;;;;18.50;102086.00;;;;5084210;28;20396;-76
2023/06/02 06:39:59;;;;;;;3.92;1.10;;;;;18.50;102085.00;;;;5086899;28;20289;-77
2023/06/02 06:42:27;;;;;;;5.75;1.15;;;;;18.60;102095.00;;;;5077323;28;20217;-77
2023/06/02 06:44:54;;;;;;;3.85;1.30;;;;;18.60;102093.00;;;;5084792;28;20213;-76
2023/06/02 06:47:23;;;;;;;3.55;1.10;;;;;18.60;102087.00;;;;5069540;28;20198;-76
2023/06/02 06:49:51;;;;;;;5.03;1.48;;;;;18.60;102097.00;;;;5084510;28;20206;-76
2023/06/02 06:52:19;;;;;;;3.38;1.08;;;;;18.60;102100.00;;;;5085502;28;20194;-76
2023/06/02 06:54:46;;;;;;;5.63;1.23;;;;;18.60;102100.00;;;;5086768;28;20241;-76
2023/06/02 06:57:13;;;;;;;2.97;1.05;;;;;18.60;102098.00;;;;5079330;28;20209;-76
2023/06/02 06:59:43;;;;;;;2.67;0.85;;;;;18.60;102111.00;;;;5086861;28;20285;-77
2023/06/02 07:02:10;;;;;;;4.28;1.23;;;;;18.60;102106.00;;;;5083653;28;20651;-76
2023/06/02 07:04:39;;;;;;;2.58;0.88;;;;;18.60;102107.00;;;;5073919;28;20700;-76
2023/06/02 07:07:08;;;;;;;3.60;1.10;;;;;18.70;102102.00;;;;5085477;28;20201;-76
2023/06/02 07:09:35;;;;;;;3.80;1.05;;;;;18.70;102111.00;;;;5086062;28;20289;-75
2023/06/02 07:12:02;;;;;;;4.78;1.95;;;;;18.70;102114.00;;;;5084820;28;20362;-77
2023/06/02 07:14:30;;;;;;;8.05;1.30;;;;;18.70;102106.00;;;;5086394;28;20202;-77
2023/06/02 07:16:59;;;;;;;4.75;1.23;;;;;18.80;102111.00;;;;5084778;28;20201;-77
2023/06/02 07:19:26;;;;;;;9.57;2.22;;;;;18.80;102111.00;;;;5085127;28;20198;-76
2023/06/02 07:21:55;;;;;;;4.55;1.30;;;;;18.80;102117.00;;;;5087313;28;20233;-77
2023/06/02 07:24:22;;;;;;;4.68;1.77;;;;;18.80;102115.00;;;;5084785;28;20209;-76
2023/06/02 07:26:50;;;;;;;3.00;1.20;;;;;18.90;102112.00;;;;5083503;28;20209;-76
2023/06/02 07:29:18;;;;;;;4.22;1.20;;;;;18.90;102109.00;;;;5085645;28;20202;-77
2023/06/02 07:31:45;;;;;;;7.25;1.30;;;;;18.90;102107.00;;;;5088701;28;20253;-76
2023/06/02 07:34:12;;;;;;;2.85;0.85;;;;;19.00;102104.00;;;;5090685;28;20218;-77
2023/06/02 07:36:40;;;;;;;3.83;1.08;;;;;19.00;102115.00;;;;5089211;28;20202;-77
2023/06/02 07:39:08;;;;;;;4.18;0.98;;;;;19.00;102120.00;;;;5090251;28;20578;-78
2023/06/02 07:41:36;;;;;;;3.85;0.95;;;;;19.10;102125.00;;;;5090509;28;20226;-78
2023/06/02 07:44:03;;;;;;;4.35;1.13;;;;;19.10;102119.00;;;;5090664;28;20217;-77
2023/06/02 07:46:30;;;;;;;3.58;1.00;;;;;19.10;102116.00;;;;5088512;28;20198;-78
2023/06/02 07:48:58;;;;;;;4.28;0.68;;;;;19.20;102110.00;;;;5089193;28;20583;-79
2023/06/02 07:51:25;;;;;;;2.55;0.88;;;;;19.20;102109.00;;;;5090929;28;20198;-79
2023/06/02 07:53:53;;;;;;;6.70;1.40;;;;;19.20;102118.00;;;;5091620;28;20206;-77
2023/06/02 07:56:21;;;;;;;6.82;1.67;;;;;19.20;102112.00;;;;5089192;28;20210;-79
2023/06/02 07:58:49;;;;;;;4.55;1.45;;;;;19.30;102106.00;;;;5089593;28;20213;-77
2023/06/02 08:01:16;;;;;;;4.70;1.55;;;;;19.30;102115.00;;;;5088306;28;20190;-77
2023/06/02 08:03:43;;;;;;;6.45;1.42;;;;;19.30;102116.00;;;;5091206;28;20197;-78
2023/06/02 08:06:11;;;;;;;4.88;1.15;;;;;19.30;102111.00;;;;5086848;28;20198;-77
2023/06/02 08:08:39;;;;;;;2.75;1.10;;;;;19.30;102118.00;;;;5083721;28;20198;-77
2023/06/02 08:11:06;;;;;;;5.20;1.48;;;;;19.40;102120.00;;;;5091405;28;20202;-77
2023/06/02 08:13:34;;;;;;;4.38;1.02;;;;;19.40;102111.00;;;;5085223;28;20198;-77
2023/06/02 08:16:02;;;;;;;8.00;1.17;;;;;19.40;102120.00;;;;5082040;28;20190;-75
2023/06/02 08:18:29;;;;;;;6.78;1.65;;;;;19.40;102119.00;;;;5089474;28;20205;-76
2023/06/02 08:20:57;;;;;;;4.47;1.35;;;;;19.40;102117.00;;;;5088735;28;20198;-76
2023/06/02 08:23:25;;;;;;;4.13;1.20;;;;;19.50;102106.00;;;;5088515;28;20229;-76
2023/06/02 08:25:54;;;;;;;5.47;1.60;;;;;19.50;102117.00;;;;5088437;28;20202;-76
2023/06/02 08:28:24;;;;;;;6.20;1.30;;;;;19.50;102113.00;;;;5086188;28;20244;-76
2023/06/02 08:30:58;;;;;;;5.00;1.20;;;;;19.50;102111.00;;;;5085184;28;20199;-75
2023/06/02 08:33:25;;;;;;;9.07;1.95;;;;;19.50;102119.00;;;;5078890;28;20230;-75
2023/06/02 08:35:53;;;;;;;2.45;1.40;;;;;19.50;102112.00;;;;5088543;28;20676;-75
2023/06/02 08:38:21;;;;;;;3.60;1.00;;;;;19.50;102113.00;;;;5086942;28;20230;-76
2023/06/02 08:40:49;;;;;;;6.35;1.50;;;;;19.50;102127.00;;;;5086170;28;20202;-76
2023/06/02 08:43:16;;;;;;;4.38;1.35;;;;;19.50;102120.00;;;;5086710;28;20225;-76
2023/06/02 08:45:46;;;;;;;3.60;0.95;;;;;19.50;102117.00;;;;5089828;28;20203;-76
2023/06/02 08:48:16;;;;;;;4.05;1.25;;;;;19.50;102112.00;;;;5086595;28;20252;-76
2023/06/02 08:50:48;;;;;;;5.38;1.70;;;;;19.50;102115.00;;;;5088394;28;20213;-76
2023/06/02 08:53:17;;;;;;;4.25;1.20;;;;;19.50;102115.00;;;;5088853;28;20191;-77
2023/06/02 08:55:48;;;;;;;3.00;1.13;;;;;19.60;102122.00;;;;5079488;28;20222;-77
2023/06/02 08:58:15;;;;;;;4.65;1.90;;;;;19.60;102107.00;;;;5082495;28;20277;-77
2023/06/02 09:00:43;;;;;;;5.32;1.00;;;;;19.60;102115.00;;;;5082397;28;20201;-76
2023/06/02 09:03:15;;;;;;;3.53;1.08;;;;;19.60;102113.00;;;;5087451;28;20230;-77
2023/06/02 09:05:43;;;;;;;6.10;1.50;;;;;19.60;102109.00;;;;5085726;28;20234;-76
2023/06/02 09:08:12;;;;;;;5.93;1.23;;;;;19.70;102126.00;;;;5084974;28;20194;-78
2023/06/02 09:10:41;;;;;;;2.97;1.33;;;;;19.70;102122.00;;;;5088578;28;20938;-78
2023/06/02 09:13:09;;;;;;;5.13;1.30;;;;;19.70;102121.00;;;;5085910;28;20194;-79
2023/06/02 09:15:37;;;;;;;4.03;1.30;;;;;19.80;102120.00;;;;5086283;28;20205;-78
2023/06/02 09:18:11;;;;;;;7.07;2.17;;;;;19.80;102120.00;;;;5088821;28;20251;-78
2023/06/02 09:20:41;;;;;;;4.55;1.55;;;;;19.90;102125.00;;;;5087921;28;20271;-78
2023/06/02 09:23:08;;;;;;;6.47;1.67;;;;;19.90;102129.00;;;;5087650;28;20222;-78
2023/06/02 09:25:38;;;;;;;7.95;1.38;;;;;20.00;102114.00;;;;5088539;28;20209;-78
2023/06/02 09:28:08;;;;;;;14.80;1.33;;;;;20.10;102121.00;;;;5089022;28;20668;-79
2023/06/02 09:30:35;;;;;;;4.65;1.48;;;;;20.10;102112.00;;;;5088886;28;20209;-79
2023/06/02 09:33:08;;;;;;;4.75;1.40;;;;;20.10;102127.00;;;;5081914;28;20230;-79
2023/06/02 09:35:36;;;;;;;4.00;1.27;;;;;20.20;102118.00;;;;5088297;28;20206;-80
2023/06/02 09:38:07;;;;;;;3.78;1.60;;;;;20.30;102122.00;;;;5087825;28;20206;-79
2023/06/02 09:40:35;;;;;;;3.97;1.40;;;;;20.40;102121.00;;;;5087130;28;20198;-80
2023/06/02 09:43:04;;;;;;;6.10;1.25;;;;;20.40;102116.00;;;;5087281;28;20773;-79
2023/06/02 09:45:32;;;;;;;2.58;1.10;;;;;20.50;102125.00;;;;5087969;28;20719;-78
2023/06/02 09:48:00;;;;;;;5.32;1.30;;;;;20.50;102125.00;;;;5088101;28;20198;-78
2023/06/02 09:50:36;;;;;;;3.83;1.45;;;;;20.50;102119.00;;;;5088526;28;20197;-77
2023/06/02 09:53:06;;;;;;;4.60;1.48;;;;;20.60;102122.00;;;;5087913;28;20259;-78
2023/06/02 09:55:35;;;;;;;2.85;1.48;;;;;20.70;102115.00;;;;5087152;28;20214;-78
2023/06/02 09:58:03;;;;;;;5.32;1.70;;;;;20.70;102117.00;;;;5088132;28;20203;-79
2023/06/02 10:00:31;;;;;;;7.20;1.70;;;;;20.80;102116.00;;;;5085545;28;20206;-79
2023/06/02 10:02:59;;;;;;;3.63;1.77;;;;;20.80;102117.00;;;;5085775;28;20222;-77
2023/06/02 10:05:26;;;;;;;11.63;2.00;;;;;20.90;102103.00;;;;5088619;28;20213;-78
2023/06/02 10:08:05;;;;;;;3.83;1.20;;;;;20.90;102110.00;;;;5071284;28;20206;-78
2023/06/02 10:10:50;;;;;;;4.85;1.70;;;;;20.90;102111.00;;;;5068565;28;20199;-78
2023/06/02 10:13:35;;;;;;;2.70;1.30;;;;;20.90;102108.00;;;;5071032;28;20209;-78
2023/06/02 10:16:12;;;;;;;6.50;1.33;;;;;21.00;102116.00;;;;5088657;28;20566;-76
2023/06/02 10:19:10;;;;;;;6.35;1.50;;;;;21.00;102110.00;;;;5088158;28;20194;-78
2023/06/02 10:21:47;;;;;;;4.78;1.20;;;;;21.10;102105.00;;;;5087462;28;20205;-78
2023/06/02 10:24:30;;;;;;;4.82;1.45;;;;;21.10;102115.00;;;;5083693;28;20198;-78
2023/06/02 10:27:12;;;;;;;7.38;1.48;;;;;21.10;102115.00;;;;5088731;28;20198;-78
2023/06/02 10:29:40;;;;;;;5.25;1.48;;;;;21.20;102115.00;;;;5085612;28;20194;-78
2023/06/02 10:32:24;;;;;;;3.53;1.40;;;;;21.20;102114.00;;;;5084563;28;20199;-78
2023/06/02 10:34:52;;;;;;;8.40;1.92;;;;;21.40;102103.00;;;;5088113;28;20205;-78
2023/06/02 10:37:21;;;;;;;6.13;1.58;;;;;21.50;102099.00;;;;5086266;28;20217;-79
2023/06/02 10:39:51;;;;;;;7.95;1.77;;;;;21.60;102100.00;;;;5086075;28;20198;-78
2023/06/02 10:42:21;;;;;;;3.55;1.75;;;;;21.70;102106.00;;;;5085943;28;20222;-78
2023/06/02 10:44:49;;;;;;;6.38;2.20;;;;;21.80;102107.00;;;;5085533;28;20198;-76
2023/06/02 10:47:37;;;;;;;5.85;2.05;;;;;21.70;102110.00;;;;5086669;28;20579;-78
2023/06/02 10:50:17;;;;;;;9.77;2.50;;;;;21.80;102106.00;;;;5085604;28;20205;-78
2023/06/02 10:53:09;;;;;;;5.30;1.80;;;;;21.90;102111.00;;;;5083998;28;20209;-76
2023/06/02 10:55:37;;;;;;;6.60;1.50;;;;;22.10;102106.00;;;;5071667;28;20225;-76
2023/06/02 10:58:07;;;;;;;2.30;1.42;;;;;22.10;102107.00;;;;5076578;28;20217;-77
2023/06/02 11:00:49;;;;;;;5.75;2.10;;;;;22.10;102106.00;;;;5086637;28;20198;-77
2023/06/02 11:03:34;;;;;;;6.28;2.13;;;;;22.10;102116.00;;;;5084522;28;20225;-76
2023/06/02 11:06:19;;;;;;;5.18;2.17;;;;;22.10;102119.00;;;;5086671;28;20198;-77
2023/06/02 11:08:47;;;;;;;8.25;2.03;;;;;22.30;102114.00;;;;5083933;28;20201;-77
2023/06/02 11:11:51;;;;;;;6.10;1.90;;;;;22.20;102110.00;;;;5088111;28;20194;-78
2023/06/02 11:14:20;;;;;;;6.13;2.17;;;;;22.40;102115.00;;;;5087544;28;20212;-79
2023/06/02 11:17:03;;;;;;;7.70;1.90;;;;;22.40;102108.00;;;;5085947;28;20200;-78
2023/06/02 11:19:48;;;;;;;4.80;2.17;;;;;22.40;102105.00;;;;5078645;28;20251;-78
2023/06/02 11:22:20;;;;;;;3.83;1.55;;;;;22.50;102114.00;;;;5086187;28;20753;-78
2023/06/02 11:24:51;;;;;;;4.57;1.73;;;;;22.60;102119.00;;;;5088152;28;20199;-78
2023/06/02 11:27:19;;;;;;;4.38;1.63;;;;;22.70;102105.00;;;;5087846;28;20236;-78
2023/06/02 11:30:05;;;;;;;5.78;2.05;;;;;22.70;102106.00;;;;5088573;28;20205;-78
2023/06/02 11:32:32;;;;;;;6.63;1.75;;;;;22.80;102103.00;;;;5084333;28;20222;-78
2023/06/02 11:35:02;;;;;;;4.60;2.00;;;;;22.90;102108.00;;;;5081662;28;20688;-78
2023/06/02 11:37:29;;;;;;;4.95;1.50;;;;;23.00;102103.00;;;;5087267;28;20202;-79
2023/06/02 11:39:57;;;;;;;7.40;2.45;;;;;23.00;102102.00;;;;5085420;28;20202;-79
2023/06/02 11:42:35;;;;;;;4.65;2.25;;;;;23.00;102103.00;;;;5081867;28;20195;-80
2023/06/02 11:45:06;;;;;;;6.15;1.80;;;;;23.10;102100.00;;;;5085373;28;20209;-80
2023/06/02 11:47:34;;;;;;;5.25;1.73;;;;;23.20;102102.00;;;;5082470;28;20648;-80
2023/06/02 11:50:01;;;;;;;3.45;1.83;;;;;23.30;102104.00;;;;5084806;28;20198;-79
2023/06/02 11:52:33;;;;;;;3.90;1.98;;;;;23.30;102100.00;;;;5085265;28;20198;-79
2023/06/02 11:55:03;;;;;;;5.00;1.73;;;;;23.40;102096.00;;;;5080002;28;20219;-80
2023/06/02 11:57:32;;;;;;;3.75;1.52;;;;;23.40;102089.00;;;;5082630;28;20550;-79
2023/06/02 12:00:15;;;;;;;5.00;1.90;;;;;23.40;102094.00;;;;5083334;28;20195;-80
2023/06/02 12:02:48;;;;;;;8.00;1.98;;;;;23.50;102097.00;;;;5084946;28;20319;-81
2023/06/02 12:05:31;;;;;;;6.32;1.27;;;;;23.40;102100.00;;;;5082171;28;20209;-80
2023/06/02 12:08:07;;;;;;;5.00;1.60;;;;;23.60;102095.00;;;;5082675;28;20195;-80
2023/06/02 12:10:34;;;;;;;3.65;1.95;;;;;23.60;102095.00;;;;5084700;28;20190;-80
2023/06/02 12:13:02;;;;;;;3.50;1.90;;;;;23.70;102098.00;;;;5085598;28;20255;-80
2023/06/02 12:15:33;;;;;;;3.85;2.10;;;;;23.60;102098.00;;;;5084022;28;20198;-80
2023/06/02 12:18:02;;;;;;;6.38;2.05;;;;;23.70;102096.00;;;;5086370;28;20217;-80
2023/06/02 12:20:41;;;;;;;6.63;1.98;;;;;23.60;102095.00;;;;5087135;28;20721;-81